Time;durP1;ratioP1;P1;durP2;ratioP2;P2;SDS_P1;SDS_P2;PMS_P1;PMS_P2;Temp;Humidity;BMP_temperature;BMP_pressure;BME280_temperature;BME280_humidity;BME280_pressure;Samples;Min_cycle;Max_cycle;Signal;HPM_P1;HPM_P2
2021/03/02 00:02:00;;;;;;;18.45;8.35;;;;;;;;;;5072726;28;20111;-61
2021/03/02 00:04:27;;;;;;;12.05;6.68;;;;;;;;;;5072803;28;20094;-61
2021/03/02 00:06:54;;;;;;;9.27;6.68;;;;;;;;;;5073059;28;20024;-62
2021/03/02 00:09:20;;;;;;;14.27;7.47;;;;;;;;;;5072541;28;20481;-63
2021/03/02 00:11:50;;;;;;;12.00;6.85;;;;;;;;;;5072920;28;20032;-62
2021/03/02 00:14:17;;;;;;;12.13;7.22;;;;;;;;;;5072785;28;20060;-61
2021/03/02 00:16:45;;;;;;;8.40;5.90;;;;;;;;;;5072978;28;20388;-62
2021/03/02 00:19:14;;;;;;;10.70;6.60;;;;;;;;;;5072861;28;20029;-62
2021/03/02 00:21:42;;;;;;;10.77;6.03;;;;;;;;;;5072614;28;20036;-62
2021/03/02 00:24:10;;;;;;;11.38;6.65;;;;;;;;;;5072854;28;20048;-62
2021/03/02 00:26:41;;;;;;;9.88;6.63;;;;;;;;;;5072631;28;20024;-62
2021/03/02 00:29:08;;;;;;;10.65;6.90;;;;;;;;;;5072534;28;20052;-61
2021/03/02 00:31:35;;;;;;;11.25;6.93;;;;;;;;;;5072640;28;20036;-61
2021/03/02 00:34:01;;;;;;;9.90;6.07;;;;;;;;;;5072484;28;20033;-62
2021/03/02 00:36:27;;;;;;;11.45;7.13;;;;;;;;;;5072437;28;20025;-62
2021/03/02 00:38:53;;;;;;;11.88;6.43;;;;;;;;;;5072741;28;20028;-62
2021/03/02 00:41:19;;;;;;;11.77;7.50;;;;;;;;;;5073281;28;20036;-62
2021/03/02 00:43:46;;;;;;;12.80;7.43;;;;;;;;;;5075930;28;20035;-62
2021/03/02 00:46:12;;;;;;;11.15;7.25;;;;;;;;;;5076031;28;20050;-62
2021/03/02 00:48:38;;;;;;;11.77;7.00;;;;;;;;;;5075985;28;20025;-61
2021/03/02 00:51:04;;;;;;;11.85;7.38;;;;;;;;;;5076062;28;20016;-62
2021/03/02 00:53:30;;;;;;;13.70;7.28;;;;;;;;;;5076069;28;20035;-62
2021/03/02 00:55:57;;;;;;;11.98;7.72;;;;;;;;;;5075728;28;20020;-61
2021/03/02 00:58:23;;;;;;;11.98;7.40;;;;;;;;;;5075994;28;20046;-62
2021/03/02 01:00:49;;;;;;;11.48;7.18;;;;;;;;;;5075625;28;20029;-61
2021/03/02 01:03:15;;;;;;;14.75;7.15;;;;;;;;;;5075932;28;20028;-62
2021/03/02 01:05:41;;;;;;;18.52;7.85;;;;;;;;;;5075578;28;20404;-62
2021/03/02 01:08:07;;;;;;;14.15;7.63;;;;;;;;;;5075652;28;20032;-62
2021/03/02 01:10:33;;;;;;;17.55;7.18;;;;;;;;;;5075400;28;20107;-62
2021/03/02 01:13:00;;;;;;;11.80;7.05;;;;;;;;;;5075479;28;20016;-61
2021/03/02 01:15:26;;;;;;;11.55;7.43;;;;;;;;;;5075354;28;20489;-62
2021/03/02 01:17:52;;;;;;;12.73;6.88;;;;;;;;;;5075591;28;20497;-62
2021/03/02 01:20:18;;;;;;;11.50;7.38;;;;;;;;;;5075399;28;20130;-61
2021/03/02 01:22:47;;;;;;;12.07;7.13;;;;;;;;;;5075308;28;20024;-61
2021/03/02 01:25:13;;;;;;;13.93;7.05;;;;;;;;;;5075182;28;20032;-61
2021/03/02 01:27:40;;;;;;;12.45;7.65;;;;;;;;;;5075189;28;20044;-62
2021/03/02 01:30:10;;;;;;;12.98;7.32;;;;;;;;;;5075075;28;20060;-62
2021/03/02 01:32:37;;;;;;;12.27;7.18;;;;;;;;;;5075029;28;20103;-62
2021/03/02 01:35:07;;;;;;;11.40;6.95;;;;;;;;;;5075385;28;20358;-62
2021/03/02 01:37:33;;;;;;;12.75;7.57;;;;;;;;;;5075272;28;20419;-62
2021/03/02 01:39:59;;;;;;;11.52;7.10;;;;;;;;;;5074934;28;20032;-62
2021/03/02 01:42:25;;;;;;;10.80;7.18;;;;;;;;;;5075189;28;20048;-62
2021/03/02 01:44:51;;;;;;;12.88;7.32;;;;;;;;;;5106259;22;20143;-72
2021/03/02 01:47:17;;;;;;;10.50;6.75;;;;;;;;;;5115268;28;20035;-72
2021/03/02 01:49:44;;;;;;;10.35;7.15;;;;;;;;;;5115437;28;20028;-71
2021/03/02 01:52:10;;;;;;;14.30;6.90;;;;;;;;;;5115195;28;20031;-71
2021/03/02 01:54:37;;;;;;;11.25;7.22;;;;;;;;;;5104581;28;20590;-71
2021/03/02 01:57:03;;;;;;;10.85;7.13;;;;;;;;;;5094745;28;20023;-71
2021/03/02 01:59:30;;;;;;;14.32;7.38;;;;;;;;;;5095010;28;20028;-72
2021/03/02 02:01:57;;;;;;;12.98;7.55;;;;;;;;;;5094736;28;20024;-71
2021/03/02 02:04:29;;;;;;;12.50;6.80;;;;;;;;;;5094751;28;20106;-72
2021/03/02 02:06:59;;;;;;;14.90;8.23;;;;;;;;;;5094912;28;20024;-71
2021/03/02 02:09:28;;;;;;;14.20;8.48;;;;;;;;;;5094644;28;20024;-71
2021/03/02 02:11:54;;;;;;;9.70;6.75;;;;;;;;;;5094621;28;20518;-72
2021/03/02 02:14:27;;;;;;;12.23;7.18;;;;;;;;;;5094672;28;20047;-71
2021/03/02 02:16:55;;;;;;;34.28;8.68;;;;;;;;;;5094721;28;20024;-72
2021/03/02 02:19:41;;;;;;;14.20;7.57;;;;;;;;;;5094607;28;20073;-72
2021/03/02 02:22:26;;;;;;;11.20;6.72;;;;;;;;;;5094497;28;20020;-71
2021/03/02 02:25:01;;;;;;;12.30;6.88;;;;;;;;;;5094476;28;20034;-72
2021/03/02 02:27:29;;;;;;;13.35;7.20;;;;;;;;;;5094477;28;20119;-71
2021/03/02 02:29:55;;;;;;;10.98;6.28;;;;;;;;;;5094482;28;20089;-72
2021/03/02 02:32:22;;;;;;;9.93;5.93;;;;;;;;;;5094113;28;20024;-71
2021/03/02 02:34:50;;;;;;;11.85;6.40;;;;;;;;;;5094187;28;20024;-72
2021/03/02 02:37:18;;;;;;;11.57;6.82;;;;;;;;;;5094096;28;20028;-72
2021/03/02 02:39:45;;;;;;;11.57;6.53;;;;;;;;;;5094256;28;20126;-72
2021/03/02 02:42:12;;;;;;;12.90;6.40;;;;;;;;;;5094012;28;20039;-71
2021/03/02 02:44:39;;;;;;;10.80;6.10;;;;;;;;;;5093885;28;20047;-71
2021/03/02 02:47:05;;;;;;;12.73;6.28;;;;;;;;;;5093886;28;20024;-72
2021/03/02 02:49:31;;;;;;;9.32;6.03;;;;;;;;;;5094046;28;20024;-72
2021/03/02 02:51:58;;;;;;;9.90;6.10;;;;;;;;;;5093970;28;20095;-71
2021/03/02 02:54:25;;;;;;;9.15;5.90;;;;;;;;;;5093668;28;20454;-71
2021/03/02 02:56:52;;;;;;;10.68;6.57;;;;;;;;;;5093733;28;20020;-71
2021/03/02 02:59:23;;;;;;;11.25;5.95;;;;;;;;;;5093750;28;20110;-71
2021/03/02 03:01:52;;;;;;;10.65;6.35;;;;;;;;;;5093594;28;20032;-71
2021/03/02 03:04:21;;;;;;;10.77;6.03;;;;;;;;;;5093535;28;20063;-71
2021/03/02 03:06:48;;;;;;;12.45;6.13;;;;;;;;;;5093609;28;20059;-71
2021/03/02 03:09:14;;;;;;;14.15;6.35;;;;;;;;;;5093580;28;20012;-71
2021/03/02 03:11:44;;;;;;;11.38;6.05;;;;;;;;;;5093863;28;20028;-71
2021/03/02 03:14:12;;;;;;;10.65;5.95;;;;;;;;;;5093721;28;20063;-71
2021/03/02 03:16:40;;;;;;;14.55;6.72;;;;;;;;;;5093431;28;20065;-71
2021/03/02 03:19:06;;;;;;;11.68;6.35;;;;;;;;;;5093882;28;20552;-71
2021/03/02 03:21:33;;;;;;;13.48;6.20;;;;;;;;;;5093615;28;20032;-71
2021/03/02 03:24:00;;;;;;;9.45;6.57;;;;;;;;;;5093471;28;20028;-71
2021/03/02 03:26:29;;;;;;;11.60;6.07;;;;;;;;;;5093556;28;20028;-71
2021/03/02 03:28:56;;;;;;;10.18;6.32;;;;;;;;;;5093413;28;20392;-71
2021/03/02 03:31:22;;;;;;;11.10;6.55;;;;;;;;;;5075208;28;20038;-72
2021/03/02 03:33:50;;;;;;;11.30;6.50;;;;;;;;;;5093576;28;20032;-71
2021/03/02 03:36:16;;;;;;;13.05;6.82;;;;;;;;;;5093384;28;20026;-71
2021/03/02 03:38:42;;;;;;;11.05;6.07;;;;;;;;;;5093180;28;20384;-71
2021/03/02 03:41:09;;;;;;;14.07;6.78;;;;;;;;;;5093422;28;20024;-72
2021/03/02 03:43:35;;;;;;;13.45;6.53;;;;;;;;;;5093526;28;20065;-70
2021/03/02 03:46:02;;;;;;;12.52;6.57;;;;;;;;;;5093053;28;20416;-71
2021/03/02 03:48:28;;;;;;;11.23;6.47;;;;;;;;;;5093259;28;20387;-70
2021/03/02 03:50:54;;;;;;;12.82;6.25;;;;;;;;;;5075042;28;20024;-71
2021/03/02 03:53:21;;;;;;;10.23;6.05;;;;;;;;;;5093397;28;20111;-71
2021/03/02 03:55:49;;;;;;;9.15;5.57;;;;;;;;;;5093417;28;20021;-70
2021/03/02 03:58:18;;;;;;;15.93;6.72;;;;;;;;;;5093172;28;20031;-70
2021/03/02 04:00:45;;;;;;;11.18;6.50;;;;;;;;;;5093043;28;20524;-70
2021/03/02 04:03:12;;;;;;;10.95;6.28;;;;;;;;;;5074903;28;20024;-71
2021/03/02 04:05:38;;;;;;;10.43;5.97;;;;;;;;;;5093037;28;20549;-70
2021/03/02 04:08:04;;;;;;;14.10;6.32;;;;;;;;;;5092940;28;20472;-70
2021/03/02 04:10:31;;;;;;;11.90;6.45;;;;;;;;;;5074932;28;20020;-70
2021/03/02 04:12:57;;;;;;;13.48;6.80;;;;;;;;;;5092872;28;20481;-70
2021/03/02 04:15:23;;;;;;;9.77;6.25;;;;;;;;;;5092960;28;20531;-70
2021/03/02 04:17:53;;;;;;;15.73;6.50;;;;;;;;;;5096124;28;20059;-70
2021/03/02 04:20:19;;;;;;;9.65;5.93;;;;;;;;;;5096847;28;20036;-71
2021/03/02 04:22:46;;;;;;;14.77;6.28;;;;;;;;;;5096726;28;20116;-71
2021/03/02 04:25:12;;;;;;;13.63;6.47;;;;;;;;;;5096988;28;20400;-70
2021/03/02 04:27:39;;;;;;;19.88;8.02;;;;;;;;;;5096567;28;20028;-70
2021/03/02 04:30:05;;;;;;;18.25;7.47;;;;;;;;;;5097002;28;20035;-70
2021/03/02 04:32:31;;;;;;;17.45;9.48;;;;;;;;;;5096601;28;20066;-70
2021/03/02 04:34:57;;;;;;;21.52;10.07;;;;;;;;;;5096570;28;20476;-70
2021/03/02 04:37:23;;;;;;;19.48;9.65;;;;;;;;;;5096704;28;20107;-70
2021/03/02 04:39:50;;;;;;;16.77;9.13;;;;;;;;;;5096378;28;20020;-70
2021/03/02 04:42:16;;;;;;;16.10;8.20;;;;;;;;;;5096827;28;20028;-70
2021/03/02 04:44:42;;;;;;;16.10;8.75;;;;;;;;;;5096317;28;20500;-70
2021/03/02 04:47:08;;;;;;;15.35;7.60;;;;;;;;;;5096264;28;20039;-70
2021/03/02 04:49:34;;;;;;;14.45;7.43;;;;;;;;;;5096274;28;20028;-70
2021/03/02 04:52:01;;;;;;;12.98;7.07;;;;;;;;;;5096219;28;20052;-70
2021/03/02 04:54:27;;;;;;;13.68;7.25;;;;;;;;;;5095986;28;20035;-70
2021/03/02 04:56:53;;;;;;;10.85;6.70;;;;;;;;;;5096072;28;20026;-70
2021/03/02 04:59:19;;;;;;;12.70;6.95;;;;;;;;;;5095867;28;20024;-70
2021/03/02 05:01:45;;;;;;;13.40;6.65;;;;;;;;;;5096065;28;20472;-71
2021/03/02 05:04:11;;;;;;;10.70;6.50;;;;;;;;;;5095821;28;20489;-71
2021/03/02 05:06:38;;;;;;;11.15;6.95;;;;;;;;;;5095871;28;20054;-70
2021/03/02 05:09:04;;;;;;;11.18;6.72;;;;;;;;;;5095946;28;20417;-71
2021/03/02 05:11:30;;;;;;;13.52;7.22;;;;;;;;;;5095974;28;20111;-70
2021/03/02 05:13:57;;;;;;;13.57;6.65;;;;;;;;;;5095694;28;20107;-71
2021/03/02 05:16:23;;;;;;;13.95;7.75;;;;;;;;;;5095908;28;20486;-71
2021/03/02 05:18:49;;;;;;;10.75;6.95;;;;;;;;;;5095582;28;20036;-71
2021/03/02 05:21:15;;;;;;;16.13;7.15;;;;;;;;;;5095874;28;20115;-71
2021/03/02 05:23:41;;;;;;;15.98;7.28;;;;;;;;;;5095617;28;20024;-70
2021/03/02 05:26:07;;;;;;;15.90;7.50;;;;;;;;;;5095867;28;20028;-70
2021/03/02 05:28:34;;;;;;;16.70;7.80;;;;;;;;;;5095218;28;20099;-70
2021/03/02 05:31:00;;;;;;;14.00;7.25;;;;;;;;;;5095787;28;20031;-70
2021/03/02 05:33:26;;;;;;;14.65;7.35;;;;;;;;;;5095264;28;20050;-71
2021/03/02 05:35:52;;;;;;;16.70;7.30;;;;;;;;;;5095564;28;20034;-70
2021/03/02 05:38:18;;;;;;;14.35;7.35;;;;;;;;;;5095351;28;20024;-70
2021/03/02 05:40:45;;;;;;;13.57;7.35;;;;;;;;;;5095195;28;20035;-70
2021/03/02 05:43:11;;;;;;;16.75;7.20;;;;;;;;;;5095270;28;20118;-70
2021/03/02 05:45:37;;;;;;;14.60;7.30;;;;;;;;;;5076987;28;20135;-70
2021/03/02 05:48:07;;;;;;;14.68;8.15;;;;;;;;;;5095373;28;20398;-70
2021/03/02 05:50:34;;;;;;;13.50;7.82;;;;;;;;;;5076958;28;20059;-70
2021/03/02 05:53:01;;;;;;;14.75;7.55;;;;;;;;;;5095233;28;20471;-71
2021/03/02 05:55:29;;;;;;;19.60;7.38;;;;;;;;;;5095000;28;20032;-70
2021/03/02 05:57:56;;;;;;;12.80;6.80;;;;;;;;;;5094963;28;20372;-70
2021/03/02 06:00:23;;;;;;;22.85;7.90;;;;;;;;;;5094942;28;20487;-70
2021/03/02 06:02:49;;;;;;;12.48;7.13;;;;;;;;;;5094816;28;20481;-70
2021/03/02 06:05:16;;;;;;;14.27;7.30;;;;;;;;;;5094934;28;20183;-70
2021/03/02 06:07:42;;;;;;;16.20;8.38;;;;;;;;;;5095048;28;20144;-71
2021/03/02 06:10:09;;;;;;;17.52;9.25;;;;;;;;;;5076451;28;20028;-70
2021/03/02 06:12:51;;;;;;;18.92;8.25;;;;;;;;;;5094637;28;20024;-70
2021/03/02 06:15:18;;;;;;;17.52;9.10;;;;;;;;;;5094666;28;20047;-71
2021/03/02 06:17:45;;;;;;;13.75;7.78;;;;;;;;;;5094764;28;20016;-70
2021/03/02 06:20:21;;;;;;;12.35;6.63;;;;;;;;;;5094342;28;20115;-70
2021/03/02 06:22:47;;;;;;;15.07;7.78;;;;;;;;;;5094432;28;20035;-70
2021/03/02 06:25:29;;;;;;;14.32;7.22;;;;;;;;;;5094184;28;20020;-70
2021/03/02 06:27:55;;;;;;;17.80;8.50;;;;;;;;;;5094572;28;20035;-70
2021/03/02 06:30:21;;;;;;;14.80;7.18;;;;;;;;;;5094242;28;20024;-70
2021/03/02 06:32:55;;;;;;;20.85;8.05;;;;;;;;;;5094138;28;20024;-70
2021/03/02 06:35:32;;;;;;;21.15;9.48;;;;;;;;;;5094282;28;20026;-70
2021/03/02 06:37:59;;;;;;;21.15;9.82;;;;;;;;;;5075913;28;20370;-72
2021/03/02 06:40:37;;;;;;;16.85;8.82;;;;;;;;;;5093103;28;20485;-70
2021/03/02 06:43:03;;;;;;;24.27;9.27;;;;;;;;;;5090755;28;20024;-70
2021/03/02 06:45:30;;;;;;;24.42;9.18;;;;;;;;;;5093345;28;20072;-69
2021/03/02 06:48:03;;;;;;;23.10;8.38;;;;;;;;;;5093256;28;20095;-70
2021/03/02 06:50:29;;;;;;;15.10;7.82;;;;;;;;;;5075515;28;20020;-70
2021/03/02 06:52:55;;;;;;;15.07;7.85;;;;;;;;;;5093621;28;20560;-70
2021/03/02 06:55:23;;;;;;;17.88;8.18;;;;;;;;;;5093929;28;20471;-71
2021/03/02 06:57:50;;;;;;;26.42;9.50;;;;;;;;;;5093915;28;20028;-71
2021/03/02 07:00:17;;;;;;;20.48;9.40;;;;;;;;;;5093700;28;20401;-71
2021/03/02 07:02:44;;;;;;;17.48;9.48;;;;;;;;;;5083439;28;20024;-72
2021/03/02 07:05:17;;;;;;;22.17;8.40;;;;;;;;;;5064087;28;20116;-70
2021/03/02 07:07:49;;;;;;;18.77;10.75;;;;;;;;;;5073252;28;20021;-71
2021/03/02 07:10:16;;;;;;;20.50;9.10;;;;;;;;;;5073704;28;20024;-71
2021/03/02 07:12:42;;;;;;;25.45;10.25;;;;;;;;;;5082713;28;20036;-72
2021/03/02 07:15:18;;;;;;;19.05;9.15;;;;;;;;;;5087101;28;20565;-73
2021/03/02 07:17:46;;;;;;;25.38;10.38;;;;;;;;;;5084176;28;20035;-72
2021/03/02 07:20:15;;;;;;;26.30;10.68;;;;;;;;;;5093299;28;20119;-73
2021/03/02 07:22:43;;;;;;;20.48;11.45;;;;;;;;;;5093560;28;20059;-73
2021/03/02 07:25:10;;;;;;;21.95;13.13;;;;;;;;;;5092629;28;20051;-73
2021/03/02 07:27:43;;;;;;;25.95;13.35;;;;;;;;;;5073547;28;20354;-72
2021/03/02 07:30:13;;;;;;;23.13;10.98;;;;;;;;;;5073186;28;20020;-76
2021/03/02 07:32:43;;;;;;;30.13;12.68;;;;;;;;;;5077443;28;20023;-73
2021/03/02 07:35:10;;;;;;;21.80;10.90;;;;;;;;;;5088390;28;20380;-73
2021/03/02 07:37:36;;;;;;;21.85;10.52;;;;;;;;;;5092732;28;20074;-73
2021/03/02 07:40:10;;;;;;;18.20;10.02;;;;;;;;;;5085288;28;20416;-73
2021/03/02 07:42:36;;;;;;;16.73;10.05;;;;;;;;;;5079330;28;20025;-73
2021/03/02 07:45:13;;;;;;;20.10;10.98;;;;;;;;;;5080417;28;20400;-74
2021/03/02 07:47:48;;;;;;;25.38;12.55;;;;;;;;;;5073169;28;20449;-74
2021/03/02 07:50:18;;;;;;;35.42;13.75;;;;;;;;;;5073498;28;20362;-73
2021/03/02 07:52:44;;;;;;;21.27;12.38;;;;;;;;;;5079461;28;20028;-72
2021/03/02 07:55:18;;;;;;;31.75;15.82;;;;;;;;;;5096460;28;20119;-73
2021/03/02 07:57:44;;;;;;;28.73;14.65;;;;;;;;;;5097077;28;20030;-72
2021/03/02 08:00:18;;;;;;;30.17;13.20;;;;;;;;;;5097309;28;20032;-72
2021/03/02 08:03:04;;;;;;;27.35;12.23;;;;;;;;;;5097181;28;20024;-73
2021/03/02 08:05:31;;;;;;;31.85;10.57;;;;;;;;;;5081342;28;20033;-74
2021/03/02 08:08:15;;;;;;;24.00;10.90;;;;;;;;;;5058655;28;20064;-74
2021/03/02 08:10:42;;;;;;;30.13;10.98;;;;;;;;;;5076462;28;20020;-73
2021/03/02 08:13:28;;;;;;;23.55;10.98;;;;;;;;;;5076822;28;20474;-73
2021/03/02 08:15:54;;;;;;;19.52;10.00;;;;;;;;;;5070002;28;20044;-73
2021/03/02 08:18:30;;;;;;;20.90;10.55;;;;;;;;;;5088774;28;20111;-73
2021/03/02 08:21:11;;;;;;;23.45;10.68;;;;;;;;;;5096951;28;20060;-74
2021/03/02 08:23:54;;;;;;;25.20;10.85;;;;;;;;;;5097037;28;20039;-71
2021/03/02 08:26:30;;;;;;;43.05;10.65;;;;;;;;;;5086791;28;20090;-74
2021/03/02 08:29:22;;;;;;;22.35;10.27;;;;;;;;;;5076442;28;20021;-74
2021/03/02 08:31:49;;;;;;;34.85;10.90;;;;;;;;;;5073481;28;20443;-74
2021/03/02 08:34:19;;;;;;;24.35;10.07;;;;;;;;;;5076263;28;20522;-74
2021/03/02 08:36:50;;;;;;;25.85;9.57;;;;;;;;;;5076140;28;20024;-73
2021/03/02 08:39:17;;;;;;;27.15;10.48;;;;;;;;;;5092778;28;20020;-74
2021/03/02 08:41:45;;;;;;;19.17;10.27;;;;;;;;;;5091915;28;20489;-75
2021/03/02 08:44:24;;;;;;;23.98;9.90;;;;;;;;;;5075828;28;20047;-74
2021/03/02 08:46:55;;;;;;;19.70;8.52;;;;;;;;;;5076156;28;20074;-74
2021/03/02 08:49:21;;;;;;;22.80;9.48;;;;;;;;;;5075765;28;20537;-74
2021/03/02 08:51:47;;;;;;;33.67;14.20;;;;;;;;;;5075831;28;20051;-74
2021/03/02 08:54:14;;;;;;;49.50;16.83;;;;;;;;;;5081893;28;20473;-75
2021/03/02 08:56:41;;;;;;;21.00;9.60;;;;;;;;;;5095964;28;20035;-74
2021/03/02 08:59:14;;;;;;;19.58;9.23;;;;;;;;;;5096379;28;20482;-74
2021/03/02 09:01:41;;;;;;;21.00;8.98;;;;;;;;;;5091321;28;20036;-74
2021/03/02 09:04:16;;;;;;;16.13;8.02;;;;;;;;;;5086467;28;20016;-74
2021/03/02 09:06:43;;;;;;;11.55;6.65;;;;;;;;;;5094890;28;20495;-74
2021/03/02 09:09:11;;;;;;;11.63;6.60;;;;;;;;;;5096022;28;20024;-74
2021/03/02 09:11:38;;;;;;;10.75;6.63;;;;;;;;;;5095672;28;20488;-74
2021/03/02 09:14:06;;;;;;;19.10;7.55;;;;;;;;;;5096039;28;20028;-74
2021/03/02 09:16:39;;;;;;;18.67;7.30;;;;;;;;;;5062497;28;20107;-74
2021/03/02 09:19:08;;;;;;;18.67;7.30;;;;;;;;;;5075481;28;20033;-74
2021/03/02 09:21:35;;;;;;;16.10;6.47;;;;;;;;;;5075561;28;20470;-74
2021/03/02 09:24:02;;;;;;;11.30;6.22;;;;;;;;;;5075515;28;20116;-74
2021/03/02 09:26:29;;;;;;;16.98;6.25;;;;;;;;;;5075434;28;20103;-74
2021/03/02 09:28:56;;;;;;;16.38;7.07;;;;;;;;;;5075372;28;20020;-75
2021/03/02 09:31:22;;;;;;;15.02;6.68;;;;;;;;;;5080435;28;20473;-75
2021/03/02 09:33:49;;;;;;;9.52;5.78;;;;;;;;;;5077924;28;20097;-75
2021/03/02 09:36:16;;;;;;;8.27;5.63;;;;;;;;;;5075152;28;20461;-75
2021/03/02 09:38:42;;;;;;;14.15;6.25;;;;;;;;;;5075019;28;20115;-74
2021/03/02 09:41:08;;;;;;;18.77;6.28;;;;;;;;;;5061704;28;20067;-75
2021/03/02 09:43:37;;;;;;;12.00;5.63;;;;;;;;;;5075237;28;20029;-75
2021/03/02 09:46:04;;;;;;;16.48;5.97;;;;;;;;;;5077646;28;20036;-75
2021/03/02 09:50:56;;;;;;;9.77;4.80;;;;;;;;;;5092153;28;20127;-60
2021/03/02 09:53:22;;;;;;;13.05;6.03;;;;;;;;;;5090042;28;20039;-61
2021/03/02 09:55:48;;;;;;;13.00;5.43;;;;;;;;;;5089766;28;20020;-60
2021/03/02 09:58:18;;;;;;;9.40;5.35;;;;;;;;;;5106504;22;20039;-74
2021/03/02 10:00:49;;;;;;;12.88;5.32;;;;;;;;;;5076482;28;20515;-74
2021/03/02 10:03:17;;;;;;;8.50;5.33;;;;;;;;;;5072563;28;20060;-73
2021/03/02 10:05:53;;;;;;;38.13;8.70;;;;;;;;;;5079605;28;20449;-74
2021/03/02 10:08:24;;;;;;;11.35;5.78;;;;;;;;;;5074689;28;20020;-74
2021/03/02 10:10:51;;;;;;;22.45;6.65;;;;;;;;;;5075785;28;20025;-74
2021/03/02 10:13:21;;;;;;;10.70;5.20;;;;;;;;;;5056436;28;20056;-73
2021/03/02 10:15:47;;;;;;;9.18;5.25;;;;;;;;;;5093390;28;20387;-74
2021/03/02 10:18:24;;;;;;;10.35;5.40;;;;;;;;;;5095102;28;20375;-74
2021/03/02 10:21:06;;;;;;;10.25;5.20;;;;;;;;;;5094622;28;20054;-75
2021/03/02 10:23:32;;;;;;;16.10;5.85;;;;;;;;;;5083376;28;20492;-75
2021/03/02 10:25:59;;;;;;;10.27;5.75;;;;;;;;;;5074157;28;20071;-75
2021/03/02 10:28:44;;;;;;;12.15;5.18;;;;;;;;;;5074215;28;20024;-74
2021/03/02 10:31:10;;;;;;;10.13;4.40;;;;;;;;;;5074991;28;20038;-74
2021/03/02 10:33:36;;;;;;;8.52;4.22;;;;;;;;;;5094181;28;20437;-73
2021/03/02 10:36:22;;;;;;;15.82;5.07;;;;;;;;;;5111423;27;20640;-73
2021/03/02 10:38:49;;;;;;;12.05;4.13;;;;;;;;;;5111662;28;20032;-73
2021/03/02 10:41:16;;;;;;;8.30;4.22;;;;;;;;;;5126923;28;20020;-74
2021/03/02 10:43:42;;;;;;;12.50;4.72;;;;;;;;;;5109977;28;20411;-73
2021/03/02 10:46:08;;;;;;;9.00;3.67;;;;;;;;;;5110949;28;20020;-74
2021/03/02 10:48:34;;;;;;;7.22;3.90;;;;;;;;;;5110875;28;20054;-73
2021/03/02 10:51:00;;;;;;;5.63;3.47;;;;;;;;;;5109002;28;20537;-73
2021/03/02 10:53:27;;;;;;;5.88;3.70;;;;;;;;;;5090549;28;20038;-74
2021/03/02 10:55:53;;;;;;;5.90;2.92;;;;;;;;;;5090555;28;20029;-74
2021/03/02 10:58:19;;;;;;;5.47;3.20;;;;;;;;;;5090691;28;20426;-74
2021/03/02 11:00:45;;;;;;;8.27;3.60;;;;;;;;;;5098970;28;20491;-75
2021/03/02 11:03:12;;;;;;;8.75;3.85;;;;;;;;;;5110799;28;20045;-74
2021/03/02 11:05:38;;;;;;;9.30;4.15;;;;;;;;;;5104344;28;20469;-71
2021/03/02 11:08:04;;;;;;;8.90;3.88;;;;;;;;;;5090245;28;20032;-72
2021/03/02 11:10:30;;;;;;;11.40;3.42;;;;;;;;;;5091090;28;20020;-71
2021/03/02 11:12:56;;;;;;;7.30;3.25;;;;;;;;;;5099711;28;20032;-73
2021/03/02 11:15:23;;;;;;;6.85;3.67;;;;;;;;;;5110303;28;20123;-72
2021/03/02 11:17:49;;;;;;;6.90;3.42;;;;;;;;;;5110744;28;20032;-72
2021/03/02 11:20:17;;;;;;;9.98;3.65;;;;;;;;;;5110602;28;20051;-73
2021/03/02 11:22:43;;;;;;;9.75;3.97;;;;;;;;;;5110529;28;20035;-73
2021/03/02 11:25:09;;;;;;;9.20;3.67;;;;;;;;;;5110484;28;20375;-72
2021/03/02 11:27:35;;;;;;;9.75;3.55;;;;;;;;;;5110348;28;20069;-71
2021/03/02 11:30:01;;;;;;;7.53;3.70;;;;;;;;;;5110225;28;20097;-71
2021/03/02 11:32:27;;;;;;;6.88;3.15;;;;;;;;;;5110087;28;20028;-72
2021/03/02 11:34:53;;;;;;;5.63;3.35;;;;;;;;;;5109763;28;20097;-71
2021/03/02 11:37:20;;;;;;;12.43;3.97;;;;;;;;;;5110086;28;20062;-72
2021/03/02 11:39:46;;;;;;;8.02;2.70;;;;;;;;;;5109936;28;20020;-71
2021/03/02 11:42:12;;;;;;;6.22;2.85;;;;;;;;;;5110126;28;20031;-72
2021/03/02 11:44:38;;;;;;;4.03;2.78;;;;;;;;;;5109962;28;20020;-71
2021/03/02 11:47:05;;;;;;;5.95;2.90;;;;;;;;;;5099111;28;20032;-72
2021/03/02 11:49:31;;;;;;;9.95;2.75;;;;;;;;;;5096416;28;20020;-72
2021/03/02 11:51:57;;;;;;;10.40;2.67;;;;;;;;;;5096268;28;20081;-72
2021/03/02 11:54:23;;;;;;;12.00;4.18;;;;;;;;;;5096139;28;20028;-73
2021/03/02 11:56:49;;;;;;;9.13;2.88;;;;;;;;;;5096200;28;20031;-72
2021/03/02 11:59:15;;;;;;;7.90;3.20;;;;;;;;;;5096184;28;20495;-73
2021/03/02 12:01:41;;;;;;;9.05;3.22;;;;;;;;;;5096175;28;20032;-73
2021/03/02 12:04:08;;;;;;;8.68;2.70;;;;;;;;;;5094772;28;20031;-72
2021/03/02 12:06:34;;;;;;;7.70;2.95;;;;;;;;;;5094693;28;20059;-72
2021/03/02 12:09:00;;;;;;;6.25;2.70;;;;;;;;;;5096310;28;20031;-72
2021/03/02 12:11:26;;;;;;;7.57;2.72;;;;;;;;;;5096056;28;20027;-72
2021/03/02 12:13:52;;;;;;;9.38;3.00;;;;;;;;;;5096049;28;20027;-73
2021/03/02 12:16:18;;;;;;;5.93;3.00;;;;;;;;;;5095755;28;20024;-72
2021/03/02 12:18:44;;;;;;;7.72;3.10;;;;;;;;;;5092456;28;20043;-73
2021/03/02 12:21:11;;;;;;;5.28;2.80;;;;;;;;;;5083091;28;20029;-74
2021/03/02 12:23:37;;;;;;;14.52;4.50;;;;;;;;;;5075426;28;20024;-71
2021/03/02 12:26:03;;;;;;;10.20;3.50;;;;;;;;;;5075448;28;20017;-72
2021/03/02 12:28:29;;;;;;;7.40;3.08;;;;;;;;;;5075565;28;20036;-72
2021/03/02 12:30:55;;;;;;;8.65;5.10;;;;;;;;;;5075132;28;20016;-74
2021/03/02 12:33:21;;;;;;;8.23;3.10;;;;;;;;;;5075565;28;20427;-72
2021/03/02 12:35:48;;;;;;;6.35;3.13;;;;;;;;;;5074889;28;20493;-72
2021/03/02 12:38:14;;;;;;;6.63;2.58;;;;;;;;;;5075141;28;20028;-74
2021/03/02 12:40:41;;;;;;;4.88;2.75;;;;;;;;;;5074969;28;20074;-72
2021/03/02 12:43:07;;;;;;;5.30;3.45;;;;;;;;;;5074918;28;20025;-72
2021/03/02 12:45:33;;;;;;;5.47;3.08;;;;;;;;;;5074887;28;20027;-73
2021/03/02 12:48:00;;;;;;;6.50;3.53;;;;;;;;;;5074969;28;20020;-72
2021/03/02 12:50:26;;;;;;;10.65;3.65;;;;;;;;;;5074854;28;20067;-72
2021/03/02 12:52:52;;;;;;;7.80;3.38;;;;;;;;;;5075375;28;20028;-72
2021/03/02 12:55:18;;;;;;;5.28;3.08;;;;;;;;;;5074614;28;20044;-70
2021/03/02 12:57:44;;;;;;;4.70;3.03;;;;;;;;;;5073897;28;20017;-73
2021/03/02 13:00:11;;;;;;;31.17;5.22;;;;;;;;;;5074664;28;20048;-73
2021/03/02 13:02:37;;;;;;;9.45;3.40;;;;;;;;;;5074631;28;20107;-73
2021/03/02 13:05:04;;;;;;;9.27;3.13;;;;;;;;;;5074312;28;20031;-73
2021/03/02 13:07:30;;;;;;;8.60;3.47;;;;;;;;;;5075294;28;20028;-73
2021/03/02 13:09:58;;;;;;;4.93;2.78;;;;;;;;;;5079243;28;20040;-72
2021/03/02 13:12:24;;;;;;;17.17;3.78;;;;;;;;;;5074662;28;20464;-72
2021/03/02 13:14:51;;;;;;;7.85;4.18;;;;;;;;;;5074228;28;20495;-72
2021/03/02 13:17:19;;;;;;;7.35;3.47;;;;;;;;;;5074240;28;20020;-73
2021/03/02 13:19:46;;;;;;;12.18;3.20;;;;;;;;;;5074160;28;20070;-72
2021/03/02 13:22:12;;;;;;;9.57;3.55;;;;;;;;;;5088621;28;20028;-73
2021/03/02 13:24:39;;;;;;;5.97;2.55;;;;;;;;;;5074124;28;20516;-73
2021/03/02 13:27:07;;;;;;;22.73;4.57;;;;;;;;;;5074160;28;20029;-74
2021/03/02 13:29:33;;;;;;;12.48;3.67;;;;;;;;;;5074261;28;20065;-73
2021/03/02 13:32:02;;;;;;;8.68;3.55;;;;;;;;;;5075802;28;20025;-74
2021/03/02 13:34:30;;;;;;;8.45;3.47;;;;;;;;;;5094031;28;20174;-74
2021/03/02 13:36:58;;;;;;;9.93;3.65;;;;;;;;;;5094318;28;20479;-74
2021/03/02 13:39:24;;;;;;;6.97;3.63;;;;;;;;;;5080987;28;20112;-74
2021/03/02 13:41:51;;;;;;;8.88;3.17;;;;;;;;;;5081095;28;20043;-74
2021/03/02 13:44:19;;;;;;;8.02;3.08;;;;;;;;;;5078015;28;20029;-75
2021/03/02 13:46:49;;;;;;;8.40;3.60;;;;;;;;;;5078222;28;20016;-76
2021/03/02 13:49:15;;;;;;;13.80;4.65;;;;;;;;;;5066269;28;20082;-75
2021/03/02 13:51:45;;;;;;;7.88;3.90;;;;;;;;;;5086314;28;20032;-76
2021/03/02 13:54:12;;;;;;;12.10;5.05;;;;;;;;;;5093837;28;20066;-76
2021/03/02 13:56:39;;;;;;;13.25;5.45;;;;;;;;;;5093800;28;20036;-75
2021/03/02 13:59:05;;;;;;;11.13;4.15;;;;;;;;;;5094102;28;20023;-75
2021/03/02 14:01:35;;;;;;;17.92;5.13;;;;;;;;;;5091008;28;20055;-72
2021/03/02 14:04:02;;;;;;;10.90;4.40;;;;;;;;;;5073864;28;20042;-75
2021/03/02 14:06:29;;;;;;;17.30;5.25;;;;;;;;;;5073579;28;20028;-73
2021/03/02 14:08:56;;;;;;;9.60;5.05;;;;;;;;;;5073591;28;20096;-74
2021/03/02 14:11:23;;;;;;;10.32;4.78;;;;;;;;;;5079375;28;20059;-74
2021/03/02 14:13:49;;;;;;;8.55;4.93;;;;;;;;;;5092338;28;20020;-75
2021/03/02 14:16:16;;;;;;;15.65;4.90;;;;;;;;;;5093541;28;20073;-75
2021/03/02 14:18:43;;;;;;;9.32;4.50;;;;;;;;;;5093575;28;20476;-76
2021/03/02 14:21:10;;;;;;;9.45;5.25;;;;;;;;;;5080052;28;20071;-76
2021/03/02 14:23:36;;;;;;;8.23;4.43;;;;;;;;;;5072442;28;20024;-75
2021/03/02 14:26:03;;;;;;;14.93;5.55;;;;;;;;;;5073114;28;20047;-75
2021/03/02 14:28:29;;;;;;;11.57;6.35;;;;;;;;;;5073279;28;20028;-75
2021/03/02 14:30:55;;;;;;;65.85;7.63;;;;;;;;;;5073258;28;20031;-75
2021/03/02 14:33:21;;;;;;;12.27;6.72;;;;;;;;;;5073149;28;20021;-74
2021/03/02 14:35:48;;;;;;;13.57;6.07;;;;;;;;;;5072696;28;20048;-74
2021/03/02 14:38:14;;;;;;;242.52;18.65;;;;;;;;;;5073301;28;20078;-75